createdAt,value
2023-04-15T00:00:59.050Z,0.00
2023-04-15T00:01:59.069Z,0.00
2023-04-15T00:02:59.263Z,0.00
2023-04-15T00:03:59.093Z,0.00
2023-04-15T00:04:59.029Z,0.00
2023-04-15T00:05:58.965Z,0.00
2023-04-15T00:06:59.160Z,0.00
2023-04-15T00:07:58.966Z,0.00
2023-04-15T00:08:59.295Z,0.00
2023-04-15T00:09:58.913Z,0.00
2023-04-15T00:10:58.932Z,0.00
2023-04-15T00:11:58.890Z,0.00
2023-04-15T00:12:58.946Z,0.00
2023-04-15T00:13:58.871Z,0.00
2023-04-15T00:14:58.895Z,0.00
2023-04-15T00:15:58.867Z,0.00
2023-04-15T00:16:59.001Z,0.00
2023-04-15T00:17:58.870Z,0.00
2023-04-15T00:18:59.223Z,0.00
2023-04-15T00:19:58.812Z,0.00
2023-04-15T00:20:58.829Z,0.00
2023-04-15T00:21:58.828Z,0.00
2023-04-15T00:22:58.794Z,0.00
2023-04-15T00:23:58.771Z,0.00
2023-04-15T00:24:58.826Z,0.00
2023-04-15T00:25:58.761Z,0.00
2023-04-15T00:26:58.772Z,0.00
2023-04-15T00:27:58.737Z,0.00
2023-04-15T00:28:59.011Z,0.00
2023-04-15T00:29:58.706Z,0.00
2023-04-15T00:30:58.774Z,0.00
2023-04-15T00:31:58.701Z,0.00
2023-04-15T00:32:58.718Z,0.00
2023-04-15T00:33:58.664Z,0.00
2023-04-15T00:34:58.664Z,0.00
2023-04-15T00:35:58.669Z,0.00
2023-04-15T00:36:59.434Z,0.00
2023-04-15T00:37:58.648Z,0.00
2023-04-15T00:38:59.083Z,0.00
2023-04-15T00:39:58.636Z,0.00
2023-04-15T00:40:58.630Z,0.00
2023-04-15T00:41:58.585Z,0.00
2023-04-15T00:42:58.589Z,0.00
2023-04-15T00:43:58.583Z,0.00
2023-04-15T00:44:58.569Z,0.00
2023-04-15T00:45:58.583Z,0.00
2023-04-15T00:46:58.559Z,0.00
2023-04-15T00:47:58.549Z,0.00
2023-04-15T00:48:58.791Z,0.00
2023-04-15T00:49:58.575Z,0.00
2023-04-15T00:50:58.510Z,0.00
2023-04-15T00:51:58.544Z,0.00
2023-04-15T00:52:58.488Z,0.00
2023-04-15T00:53:58.465Z,0.00
2023-04-15T00:54:58.480Z,0.00
2023-04-15T00:55:58.510Z,0.00
2023-04-15T00:56:58.461Z,0.00
2023-04-15T00:57:58.426Z,0.00
2023-04-15T00:58:58.639Z,0.00
2023-04-15T00:59:58.402Z,0.00
2023-04-15T01:00:58.408Z,0.00
2023-04-15T01:01:58.598Z,0.00
2023-04-15T01:02:58.518Z,0.00
2023-04-15T01:03:58.383Z,0.00
2023-04-15T01:04:58.357Z,0.00
2023-04-15T01:05:58.357Z,0.00
2023-04-15T01:06:58.333Z,0.00
2023-04-15T01:07:58.360Z,0.00
2023-04-15T01:08:58.449Z,0.00
2023-04-15T01:09:58.283Z,0.00
2023-04-15T01:10:58.297Z,0.00
2023-04-15T01:11:58.276Z,0.00
2023-04-15T01:12:58.280Z,0.00
2023-04-15T01:13:58.242Z,0.00
2023-04-15T01:14:58.248Z,0.00
2023-04-15T01:15:58.374Z,0.00
2023-04-15T01:16:58.220Z,0.00
2023-04-15T01:17:58.258Z,0.00
2023-04-15T01:18:58.278Z,0.00
2023-04-15T01:19:58.214Z,0.00
2023-04-15T01:20:58.205Z,0.00
2023-04-15T01:21:58.207Z,0.00
2023-04-15T01:22:58.173Z,0.00
2023-04-15T01:23:58.140Z,0.00
2023-04-15T01:24:58.163Z,0.00
2023-04-15T01:25:58.107Z,0.00
2023-04-15T01:26:58.138Z,0.00
2023-04-15T01:27:58.264Z,0.00
2023-04-15T01:28:58.293Z,0.00
2023-04-15T01:29:58.075Z,0.00
2023-04-15T06:00:56.498Z,644.00
2023-04-15T06:01:57.469Z,629.00
2023-04-15T06:02:57.580Z,639.00
2023-04-15T06:03:57.599Z,651.00
2023-04-15T06:04:57.489Z,681.00
2023-04-15T06:05:57.410Z,694.00
2023-04-15T06:06:57.668Z,697.00
2023-04-15T06:07:57.385Z,701.00
2023-04-15T06:08:57.378Z,707.00
2023-04-15T06:09:57.353Z,717.00
2023-04-15T06:10:57.381Z,732.00
2023-04-15T06:11:57.347Z,748.00
2023-04-15T06:12:57.330Z,765.00
2023-04-15T06:13:57.315Z,780.00
2023-04-15T06:14:59.938Z,785.00
2023-04-15T06:15:57.318Z,814.00
2023-04-15T06:16:57.314Z,847.00
2023-04-15T06:17:57.321Z,865.00
2023-04-15T06:18:57.291Z,873.00
2023-04-15T06:19:57.248Z,876.00
2023-04-15T06:20:57.263Z,901.00
2023-04-15T06:21:57.226Z,927.00
2023-04-15T06:22:57.243Z,943.00
2023-04-15T06:23:57.270Z,953.00
2023-04-15T06:24:57.194Z,995.00
2023-04-15T06:25:57.197Z,1021.00
2023-04-15T06:26:57.167Z,1055.00
2023-04-15T06:27:57.178Z,1082.00
2023-04-15T06:28:57.161Z,1119.00
2023-04-15T06:29:57.179Z,1121.00
2023-04-15T06:30:57.138Z,1101.00
2023-04-15T06:31:57.184Z,1072.00
2023-04-15T06:32:57.178Z,1044.00
2023-04-15T06:33:57.106Z,1039.00
2023-04-15T06:34:57.107Z,1031.00
2023-04-15T06:35:57.100Z,1015.00
2023-04-15T06:36:57.079Z,1003.00
2023-04-15T06:37:57.081Z,990.00
2023-04-15T06:38:57.074Z,987.00
2023-04-15T06:39:57.063Z,980.00
2023-04-15T06:40:57.063Z,979.00
2023-04-15T06:41:57.041Z,975.00
2023-04-15T06:42:57.048Z,969.00
2023-04-15T06:43:57.037Z,1024.00
2023-04-15T06:44:56.990Z,1106.00
2023-04-15T06:45:57.036Z,1184.00
2023-04-15T06:46:56.981Z,1232.00
2023-04-15T06:47:57.044Z,1269.00
2023-04-15T06:48:56.941Z,1265.00
2023-04-15T06:49:56.942Z,1250.00
2023-04-15T06:50:56.933Z,1236.00
2023-04-15T06:51:56.942Z,1200.00
2023-04-15T06:52:56.932Z,1153.00
2023-04-15T06:53:56.920Z,1091.00
2023-04-15T06:54:56.871Z,1057.00
2023-04-15T06:55:56.867Z,1036.00
2023-04-15T06:56:56.844Z,1031.00
2023-04-15T06:57:56.861Z,1034.00
2023-04-15T06:58:56.850Z,1035.00
2023-04-15T06:59:56.843Z,1043.00
2023-04-15T07:00:56.833Z,1052.00
2023-04-15T07:01:56.849Z,1037.00
2023-04-15T07:02:56.812Z,1035.00
2023-04-15T07:03:56.812Z,1055.00
2023-04-15T07:04:56.796Z,1073.00
2023-04-15T07:05:56.774Z,1115.00
2023-04-15T07:06:56.746Z,1174.00
2023-04-15T07:07:56.769Z,1214.00
2023-04-15T07:08:56.751Z,1217.00
2023-04-15T07:09:56.744Z,1210.00
2023-04-15T07:10:56.764Z,1191.00
2023-04-15T07:11:56.743Z,1171.00
2023-04-15T07:12:56.706Z,1142.00
2023-04-15T07:13:56.685Z,1128.00
2023-04-15T07:14:56.693Z,1127.00
2023-04-15T07:15:56.673Z,1085.00
2023-04-15T07:16:56.786Z,1046.00
2023-04-15T07:17:56.750Z,1077.00
2023-04-15T07:18:56.628Z,1112.00
2023-04-15T07:19:56.662Z,1139.00
2023-04-15T07:20:56.612Z,1167.00
2023-04-15T07:21:56.639Z,1182.00
2023-04-15T07:22:56.627Z,1193.00
2023-04-15T07:23:56.603Z,1243.00
2023-04-15T07:24:56.578Z,1233.00
2023-04-15T07:25:56.573Z,1210.00
2023-04-15T07:26:57.955Z,1188.00
2023-04-15T07:27:56.568Z,1198.00
2023-04-15T07:28:56.557Z,1225.00
2023-04-15T07:29:56.529Z,1246.00
2023-04-15T07:30:56.531Z,1245.00
2023-04-15T07:31:56.519Z,1225.00
2023-04-15T07:32:56.519Z,1205.00
2023-04-15T07:33:56.496Z,1186.00
2023-04-15T07:34:56.502Z,1158.00
2023-04-15T07:35:56.464Z,1131.00
2023-04-15T07:36:56.434Z,1123.00
2023-04-15T07:37:56.445Z,1107.00
2023-04-15T07:38:56.419Z,1109.00
2023-04-15T07:39:56.435Z,1151.00
2023-04-15T07:40:56.435Z,1201.00
2023-04-15T07:41:56.425Z,1242.00
2023-04-15T07:42:56.369Z,1276.00
2023-04-15T07:43:56.382Z,1314.00
2023-04-15T07:44:56.357Z,1358.00
2023-04-15T07:45:56.406Z,1403.00
2023-04-15T07:46:56.358Z,1415.00
2023-04-15T07:47:56.386Z,1465.00
2023-04-15T07:48:56.315Z,1517.00
2023-04-15T07:49:56.320Z,1564.00
2023-04-15T07:50:56.284Z,1612.00
2023-04-15T07:51:56.306Z,1670.00
2023-04-15T07:52:56.299Z,1728.00
2023-04-15T07:53:56.274Z,1778.00
2023-04-15T07:54:56.272Z,1809.00
2023-04-15T07:55:56.246Z,1836.00
2023-04-15T07:56:56.228Z,1859.00
2023-04-15T07:57:56.235Z,1891.00
2023-04-15T07:58:56.241Z,1929.00
2023-04-15T07:59:56.233Z,1965.00
2023-04-15T08:00:56.174Z,2023.00
2023-04-15T08:01:56.194Z,2093.00
2023-04-15T08:02:56.408Z,2162.00
2023-04-15T08:03:56.392Z,2207.00
2023-04-15T08:04:56.226Z,2250.00
2023-04-15T08:05:56.178Z,2254.00
2023-04-15T08:06:56.139Z,2233.00
2023-04-15T08:07:56.134Z,2165.00
2023-04-15T08:08:56.106Z,2077.00
2023-04-15T08:09:56.117Z,1998.00
2023-04-15T08:10:56.094Z,1919.00
2023-04-15T08:11:56.090Z,1866.00
2023-04-15T08:12:56.084Z,1837.00
2023-04-15T08:13:56.068Z,1850.00
2023-04-15T08:14:56.034Z,1888.00
2023-04-15T08:15:56.107Z,1884.00
2023-04-15T08:16:56.020Z,1882.00
2023-04-15T08:17:56.051Z,1908.00
2023-04-15T08:18:55.994Z,1933.00
2023-04-15T08:19:55.989Z,1979.00
2023-04-15T08:20:55.967Z,2050.00
2023-04-15T08:21:56.012Z,2103.00
2023-04-15T08:22:55.966Z,2153.00
2023-04-15T08:23:55.968Z,2151.00
2023-04-15T08:24:55.978Z,2150.00
2023-04-15T08:25:55.932Z,2129.00
2023-04-15T08:26:55.906Z,2123.00
2023-04-15T08:27:55.921Z,2108.00
2023-04-15T08:28:55.896Z,2118.00
2023-04-15T08:29:55.897Z,2137.00
2023-04-15T08:30:55.879Z,2189.00
2023-04-15T08:31:55.943Z,2245.00
2023-04-15T08:32:55.961Z,2297.00
2023-04-15T08:33:55.845Z,2356.00
2023-04-15T08:34:55.823Z,2351.00
2023-04-15T08:35:55.825Z,2359.00
2023-04-15T08:36:55.806Z,2339.00
2023-04-15T08:37:55.812Z,2334.00
2023-04-15T08:38:55.814Z,2331.00
2023-04-15T08:39:55.811Z,2373.00
2023-04-15T08:40:55.755Z,2447.00
2023-04-15T08:41:55.765Z,2542.00
2023-04-15T08:42:55.731Z,2604.00
2023-04-15T08:43:55.745Z,2627.00
2023-04-15T08:44:55.752Z,2614.00
2023-04-15T08:45:55.737Z,2598.00
2023-04-15T08:46:55.705Z,2566.00
2023-04-15T08:47:55.733Z,2559.00
2023-04-15T08:48:55.743Z,2591.00
2023-04-15T08:49:55.713Z,2632.00
2023-04-15T08:50:55.647Z,2636.00
2023-04-15T08:51:55.697Z,2589.00
2023-04-15T08:52:55.624Z,2561.00
2023-04-15T08:53:55.634Z,2498.00
2023-04-15T08:54:55.599Z,2449.00
2023-04-15T08:55:55.612Z,2415.00
2023-04-15T08:56:55.629Z,2454.00
2023-04-15T08:57:55.616Z,2510.00
2023-04-15T08:58:55.643Z,2573.00
2023-04-15T08:59:55.584Z,2564.00
2023-04-15T09:00:55.557Z,2566.00
2023-04-15T09:01:55.659Z,2550.00
2023-04-15T09:02:55.600Z,2543.00
2023-04-15T09:03:55.630Z,2503.00
2023-04-15T09:04:55.518Z,2484.00
2023-04-15T09:05:55.505Z,2559.00
2023-04-15T09:06:55.491Z,2623.00
2023-04-15T09:07:55.543Z,2659.00
2023-04-15T09:08:55.505Z,2719.00
2023-04-15T09:09:55.462Z,2766.00
2023-04-15T09:10:55.434Z,2781.00
2023-04-15T09:11:55.453Z,2799.00
2023-04-15T09:12:55.419Z,2785.00
2023-04-15T09:13:55.448Z,2791.00
2023-04-15T09:14:55.395Z,2811.00
2023-04-15T09:15:55.404Z,2899.00
2023-04-15T09:16:55.480Z,2949.00
2023-04-15T09:17:55.414Z,2883.00
2023-04-15T09:18:55.353Z,2817.00
2023-04-15T09:19:55.361Z,2759.00
2023-04-15T09:20:55.349Z,2728.00
2023-04-15T09:21:58.013Z,2720.00
2023-04-15T09:22:55.339Z,2793.00
2023-04-15T09:23:55.302Z,2851.00
2023-04-15T09:24:55.344Z,2873.00
2023-04-15T09:25:55.420Z,2834.00
2023-04-15T09:26:55.273Z,2864.00
2023-04-15T09:27:55.250Z,2908.00
2023-04-15T09:28:55.245Z,2937.00
2023-04-15T09:29:55.278Z,2964.00
2023-04-15T09:30:55.250Z,3047.00
2023-04-15T09:31:55.262Z,3126.00
2023-04-15T09:32:55.246Z,3182.00
2023-04-15T09:33:55.215Z,3365.00
2023-04-15T09:34:55.174Z,3456.00
2023-04-15T09:35:55.185Z,3442.00
2023-04-15T09:36:55.167Z,3255.00
2023-04-15T09:37:55.182Z,2987.00
2023-04-15T09:38:55.148Z,2705.00
2023-04-15T09:39:55.141Z,2503.00
2023-04-15T09:40:55.109Z,2339.00
2023-04-15T09:41:55.143Z,2255.00
2023-04-15T09:42:55.079Z,2118.00
2023-04-15T09:43:55.101Z,2040.00
2023-04-15T09:44:55.102Z,1994.00
2023-04-15T09:45:55.149Z,1962.00
2023-04-15T09:46:55.048Z,1984.00
2023-04-15T09:47:56.918Z,1990.00
2023-04-15T09:48:55.054Z,1969.00
2023-04-15T09:49:55.112Z,2014.00
2023-04-15T09:50:55.037Z,2099.00
2023-04-15T09:52:04.399Z,2245.00
2023-04-15T09:52:54.994Z,2294.00
2023-04-15T09:53:55.007Z,2276.00
2023-04-15T09:54:54.978Z,2223.00
2023-04-15T09:55:54.986Z,2212.00
2023-04-15T09:56:54.932Z,2236.00
2023-04-15T09:57:54.944Z,2246.00
2023-04-15T09:58:54.918Z,2320.00
2023-04-15T09:59:54.960Z,2323.00
2023-04-15T10:00:54.899Z,2247.00
2023-04-15T10:01:55.084Z,2159.00
2023-04-15T10:02:54.994Z,2175.00
2023-04-15T10:03:55.067Z,2232.00
2023-04-15T10:04:54.890Z,2250.00
2023-04-15T10:05:54.889Z,2218.00
2023-04-15T10:06:54.833Z,2170.00
2023-04-15T10:07:54.850Z,2171.00
2023-04-15T10:08:54.807Z,2179.00
2023-04-15T10:09:54.852Z,2201.00
2023-04-15T10:10:54.808Z,2144.00
2023-04-15T10:11:54.837Z,2029.00
2023-04-15T10:12:54.777Z,1910.00
2023-04-15T10:13:54.787Z,1849.00
2023-04-15T10:14:54.750Z,1854.00
2023-04-15T10:15:54.781Z,1874.00
2023-04-15T10:16:54.746Z,1899.00
2023-04-15T10:17:54.826Z,1991.00
2023-04-15T10:18:54.722Z,2085.00
2023-04-15T10:19:54.739Z,2170.00
2023-04-15T10:20:54.683Z,2325.00
2023-04-15T10:21:54.685Z,2550.00
2023-04-15T10:22:54.660Z,2749.00
2023-04-15T10:23:54.701Z,2775.00
2023-04-15T10:24:54.668Z,2815.00
2023-04-15T10:25:54.682Z,2903.00
2023-04-15T10:26:54.622Z,3065.00
2023-04-15T10:27:54.618Z,3239.00
2023-04-15T10:28:54.718Z,3428.00
2023-04-15T10:29:54.655Z,3520.00
2023-04-15T10:30:54.609Z,3464.00
2023-04-15T10:31:54.573Z,3469.00
2023-04-15T10:32:54.582Z,3495.00
2023-04-15T10:33:54.559Z,3535.00
2023-04-15T10:34:54.818Z,3492.00
2023-04-15T10:35:54.607Z,3446.00
2023-04-15T10:36:54.519Z,3468.00
2023-04-15T10:37:54.515Z,3451.00
2023-04-15T10:38:54.488Z,3470.00
2023-04-15T10:39:54.485Z,3454.00
2023-04-15T10:40:54.500Z,3772.00
2023-04-15T10:41:54.497Z,3964.00
2023-04-15T10:42:54.461Z,3922.00
2023-04-15T10:43:54.449Z,4042.00
2023-04-15T10:44:54.440Z,4031.00
2023-04-15T10:45:54.433Z,3886.00
2023-04-15T10:46:54.485Z,3776.00
2023-04-15T10:47:54.478Z,3635.00
2023-04-15T10:48:54.407Z,3415.00
2023-04-15T10:49:54.366Z,3273.00
2023-04-15T10:50:54.380Z,3207.00
2023-04-15T10:51:54.374Z,3307.00
2023-04-15T10:52:54.369Z,3370.00
2023-04-15T10:53:54.415Z,3349.00
2023-04-15T10:54:54.333Z,3110.00
2023-04-15T10:55:54.301Z,2919.00
2023-04-15T10:56:54.353Z,2744.00
2023-04-15T10:57:54.314Z,2762.00
2023-04-15T10:58:54.315Z,2637.00
2023-04-15T10:59:54.298Z,2341.00
2023-04-15T11:00:54.276Z,2135.00
2023-04-15T11:01:54.461Z,2030.00
2023-04-15T11:02:54.402Z,1996.00
2023-04-15T11:03:54.403Z,1971.00
2023-04-15T11:04:54.273Z,1952.00
2023-04-15T11:05:54.655Z,2074.00
2023-04-15T11:06:54.240Z,2331.00
2023-04-15T11:07:54.188Z,2691.00
2023-04-15T11:08:54.216Z,3023.00
2023-04-15T11:09:54.185Z,3318.00
2023-04-15T11:10:54.256Z,3394.00
2023-04-15T11:11:54.201Z,3284.00
2023-04-15T11:12:54.161Z,3102.00
2023-04-15T11:13:54.130Z,3041.00
2023-04-15T11:14:54.122Z,3116.00
2023-04-15T11:15:54.114Z,3256.00
2023-04-15T11:16:54.092Z,3490.00
2023-04-15T11:17:54.394Z,4168.00
2023-04-15T11:18:54.077Z,4444.00
2023-04-15T11:19:54.073Z,4604.00
2023-04-15T11:20:54.070Z,4539.00
2023-04-15T11:21:54.075Z,4712.00
2023-04-15T11:23:14.640Z,4715.00
2023-04-15T11:23:54.044Z,4802.00
2023-04-15T11:24:54.036Z,4627.00
2023-04-15T11:25:53.986Z,4767.00
2023-04-15T11:26:53.987Z,4803.00
2023-04-15T11:27:53.978Z,4320.00
2023-04-15T11:28:54.001Z,3819.00
2023-04-15T11:29:53.973Z,3322.00
2023-04-15T11:30:53.963Z,2732.00
2023-04-15T11:31:53.967Z,2440.00
2023-04-15T11:32:53.985Z,2459.00
2023-04-15T11:33:53.916Z,2659.00
2023-04-15T11:34:53.911Z,2854.00
2023-04-15T11:35:53.934Z,2750.00
2023-04-15T11:36:53.889Z,2605.00
2023-04-15T11:37:53.850Z,2637.00
2023-04-15T11:38:53.868Z,2341.00
2023-04-15T11:39:53.848Z,2483.00
2023-04-15T11:40:53.850Z,2381.00
2023-04-15T11:41:53.877Z,2339.00
2023-04-15T11:42:53.849Z,2371.00
2023-04-15T11:43:53.824Z,1932.00
2023-04-15T11:44:53.827Z,1887.00
2023-04-15T11:45:53.909Z,2023.00
2023-04-15T11:46:53.791Z,1994.00
2023-04-15T11:47:53.822Z,2190.00
2023-04-15T11:48:53.760Z,2463.00
2023-04-15T11:49:53.736Z,2254.00
2023-04-15T11:50:53.735Z,2492.00
2023-04-15T11:51:53.741Z,2632.00
2023-04-15T11:52:53.718Z,2386.00
2023-04-15T11:53:53.747Z,2207.00
2023-04-15T11:54:53.705Z,2416.00
2023-04-15T11:55:53.667Z,2400.00
2023-04-15T11:56:53.681Z,2311.00
2023-04-15T11:57:53.647Z,2551.00
2023-04-15T11:58:53.657Z,2724.00
2023-04-15T11:59:53.657Z,2670.00
2023-04-15T12:00:53.629Z,2625.00
2023-04-15T12:01:53.659Z,2631.00
2023-04-15T12:02:53.671Z,2592.00
2023-04-15T12:03:53.699Z,2692.00
2023-04-15T12:04:53.755Z,2710.00
2023-04-15T12:05:53.589Z,3036.00
2023-04-15T12:06:53.571Z,2517.00
2023-04-15T12:07:53.541Z,2656.00
2023-04-15T12:08:53.555Z,2643.00
2023-04-15T12:09:53.543Z,2405.00
2023-04-15T12:10:53.521Z,2267.00
2023-04-15T12:11:53.518Z,2408.00
2023-04-15T12:12:53.507Z,2398.00
2023-04-15T12:13:53.481Z,2632.00
2023-04-15T12:14:53.479Z,2588.00
2023-04-15T12:15:53.475Z,2548.00
2023-04-15T12:16:53.455Z,2477.00
2023-04-15T12:17:53.514Z,2655.00
2023-04-15T12:18:53.446Z,3245.00
2023-04-15T12:19:53.415Z,3507.00
2023-04-15T12:20:53.414Z,3300.00
2023-04-15T12:21:53.389Z,2902.00
2023-04-15T12:22:53.408Z,3112.00
2023-04-15T12:23:53.398Z,3486.00
2023-04-15T12:24:53.403Z,3676.00
2023-04-15T12:25:53.348Z,3442.00
2023-04-15T12:26:53.392Z,3071.00
2023-04-15T12:27:53.343Z,2428.00
2023-04-15T12:28:53.333Z,2929.00
2023-04-15T12:29:53.325Z,3373.00
2023-04-15T12:30:53.354Z,3311.00
2023-04-15T12:31:53.289Z,2815.00
2023-04-15T12:32:53.332Z,2602.00
2023-04-15T12:33:53.281Z,1754.00
2023-04-15T12:34:53.293Z,2197.00
2023-04-15T12:35:53.269Z,1705.00
2023-04-15T12:36:53.256Z,1720.00
2023-04-15T12:37:53.222Z,1296.00
2023-04-15T12:38:53.235Z,1751.00
2023-04-15T12:39:53.220Z,1376.00
2023-04-15T12:40:53.230Z,1002.00
2023-04-15T12:41:53.252Z,629.00
2023-04-15T12:42:53.196Z,810.00
2023-04-15T12:43:53.155Z,1201.00
2023-04-15T12:44:53.177Z,1573.00
2023-04-15T12:45:53.134Z,1628.00
2023-04-15T12:46:53.262Z,1500.00
2023-04-15T12:47:53.179Z,1770.00
2023-04-15T12:48:53.132Z,1641.00
2023-04-15T12:49:53.086Z,1728.00
2023-04-15T12:50:53.100Z,1797.00
2023-04-15T12:51:53.089Z,1549.00
2023-04-15T12:52:53.102Z,1577.00
2023-04-15T12:53:53.085Z,1856.00
2023-04-15T12:54:53.100Z,2152.00
2023-04-15T12:55:53.049Z,1724.00
2023-04-15T12:56:53.054Z,1726.00
2023-04-15T12:57:53.020Z,1596.00
2023-04-15T12:58:53.049Z,1591.00
2023-04-15T12:59:53.045Z,1725.00
2023-04-15T13:00:53.011Z,1810.00
2023-04-15T13:01:53.065Z,1857.00
2023-04-15T13:02:53.003Z,1577.00
2023-04-15T13:03:53.050Z,1491.00
2023-04-15T13:04:52.991Z,1546.00
2023-04-15T13:05:52.965Z,1521.00
2023-04-15T13:06:52.941Z,1502.00
2023-04-15T13:07:52.903Z,1520.00
2023-04-15T13:08:58.458Z,1568.00
2023-04-15T13:09:52.906Z,1457.00
2023-04-15T13:10:52.890Z,1474.00
2023-04-15T13:11:53.015Z,1726.00
2023-04-15T13:12:52.858Z,2028.00
2023-04-15T13:13:52.853Z,1990.00
2023-04-15T13:14:52.873Z,2005.00
2023-04-15T13:15:52.892Z,1929.00
2023-04-15T13:16:52.812Z,1846.00
2023-04-15T13:17:52.917Z,1826.00
2023-04-15T13:18:52.797Z,1870.00
2023-04-15T13:19:52.790Z,1858.00
2023-04-15T13:20:52.782Z,1874.00
2023-04-15T13:21:52.754Z,1787.00
2023-04-15T13:22:52.752Z,1750.00
2023-04-15T13:23:52.769Z,1775.00
2023-04-15T13:24:52.744Z,1773.00
2023-04-15T13:25:52.713Z,1810.00
2023-04-15T13:26:52.732Z,1876.00
2023-04-15T13:27:52.687Z,1873.00
2023-04-15T13:28:52.704Z,1860.00
2023-04-15T13:29:52.705Z,1948.00
2023-04-15T13:30:52.682Z,1939.00
2023-04-15T13:31:52.684Z,1866.00
2023-04-15T13:32:52.744Z,1774.00
2023-04-15T13:33:52.665Z,1735.00
2023-04-15T13:34:52.631Z,1855.00
2023-04-15T13:35:52.620Z,1974.00
2023-04-15T13:36:52.630Z,2001.00
2023-04-15T13:37:52.587Z,1900.00
2023-04-15T13:38:52.616Z,1817.00
2023-04-15T13:39:52.567Z,1725.00
2023-04-15T13:40:52.574Z,1604.00
2023-04-15T13:41:52.552Z,1503.00
2023-04-15T13:42:52.560Z,1515.00
2023-04-15T13:43:52.552Z,1508.00
2023-04-15T13:44:52.539Z,1498.00
2023-04-15T13:45:52.602Z,1390.00
2023-04-15T13:46:52.500Z,1284.00
2023-04-15T13:47:52.614Z,1258.00
2023-04-15T13:48:52.504Z,1235.00
2023-04-15T13:49:52.456Z,1270.00
2023-04-15T13:50:52.466Z,1328.00
2023-04-15T13:51:52.458Z,1486.00
2023-04-15T13:52:52.445Z,1460.00
2023-04-15T13:53:52.433Z,1513.00
2023-04-15T13:55:06.242Z,1455.00
2023-04-15T13:55:52.401Z,1529.00
2023-04-15T13:56:52.426Z,1694.00
2023-04-15T13:57:52.379Z,1520.00
2023-04-15T13:58:52.376Z,1600.00
2023-04-15T13:59:52.346Z,1732.00
2023-04-15T14:00:52.401Z,1679.00
2023-04-15T14:01:52.461Z,1652.00
2023-04-15T14:02:52.530Z,1800.00
2023-04-15T14:03:52.427Z,1348.00
2023-04-15T14:04:52.301Z,1555.00
2023-04-15T14:05:52.285Z,1549.00
2023-04-15T14:06:52.295Z,1601.00
2023-04-15T14:07:52.280Z,1512.00
2023-04-15T14:08:53.060Z,934.00
2023-04-15T14:09:52.236Z,1416.00
2023-04-15T14:10:52.252Z,1091.00
2023-04-15T14:11:52.218Z,960.00
2023-04-15T14:12:52.223Z,1216.00
2023-04-15T14:13:52.206Z,1075.00
2023-04-15T14:14:52.217Z,1308.00
2023-04-15T14:15:52.168Z,1537.00
2023-04-15T14:16:52.468Z,1156.00
2023-04-15T14:17:52.239Z,1116.00
2023-04-15T14:18:52.188Z,1263.00
2023-04-15T14:19:52.174Z,1295.00
2023-04-15T14:20:52.172Z,1137.00
2023-04-15T14:21:52.109Z,1212.00
2023-04-15T14:22:52.115Z,1181.00
2023-04-15T14:23:52.087Z,1279.00
2023-04-15T14:24:52.100Z,1385.00
2023-04-15T14:25:52.124Z,1228.00
2023-04-15T14:26:52.144Z,1187.00
2023-04-15T14:27:52.055Z,1043.00
2023-04-15T14:28:52.053Z,958.00
2023-04-15T14:29:52.022Z,1010.00
2023-04-15T14:30:52.059Z,967.00
2023-04-15T14:32:06.206Z,996.00
2023-04-15T14:32:52.297Z,890.00
2023-04-15T14:33:52.005Z,953.00
2023-04-15T14:34:51.991Z,973.00
2023-04-15T14:35:51.962Z,1093.00
2023-04-15T14:36:51.956Z,1102.00
2023-04-15T14:37:51.938Z,1119.00
2023-04-15T14:38:51.998Z,1209.00
2023-04-15T14:39:51.915Z,1242.00
2023-04-15T14:40:51.936Z,1230.00
2023-04-15T14:41:51.898Z,1090.00
2023-04-15T14:42:51.901Z,1042.00
2023-04-15T14:43:51.875Z,1080.00
2023-04-15T14:44:51.917Z,1060.00
2023-04-15T14:45:51.887Z,1086.00
2023-04-15T14:46:51.897Z,1105.00
2023-04-15T14:47:51.854Z,1001.00
2023-04-15T14:48:51.849Z,1043.00
2023-04-15T14:49:51.809Z,1148.00
2023-04-15T14:50:51.853Z,1259.00
2023-04-15T14:51:51.805Z,1158.00
2023-04-15T14:52:51.813Z,1139.00
2023-04-15T14:53:51.777Z,1134.00
2023-04-15T14:54:51.812Z,1136.00
2023-04-15T14:55:51.778Z,1026.00
2023-04-15T14:56:51.775Z,1062.00
2023-04-15T14:57:51.745Z,1053.00
2023-04-15T14:58:51.737Z,1031.00
2023-04-15T14:59:51.732Z,1006.00
2023-04-15T15:00:51.705Z,950.00
2023-04-15T15:01:51.803Z,958.00
2023-04-15T15:02:51.818Z,1041.00
2023-04-15T15:03:51.827Z,883.00
2023-04-15T15:04:51.750Z,845.00
2023-04-15T15:05:51.856Z,741.00
2023-04-15T15:06:51.660Z,637.00
2023-04-15T15:07:51.703Z,705.00
2023-04-15T15:08:51.630Z,707.00
2023-04-15T15:09:51.613Z,763.00
2023-04-15T15:10:51.596Z,789.00
2023-04-15T15:11:51.627Z,656.00
2023-04-15T15:12:51.570Z,795.00
2023-04-15T15:13:51.621Z,739.00
2023-04-15T15:14:51.542Z,783.00
2023-04-15T15:15:51.609Z,986.00
2023-04-15T15:16:51.538Z,814.00
2023-04-15T15:17:51.609Z,1015.00
2023-04-15T15:18:51.510Z,1047.00
2023-04-15T15:19:51.559Z,916.00
2023-04-15T15:20:51.504Z,856.00
2023-04-15T15:21:51.536Z,864.00
2023-04-15T15:22:51.462Z,804.00
2023-04-15T15:23:51.476Z,741.00
2023-04-15T15:24:51.486Z,676.00
2023-04-15T15:25:51.518Z,683.00
2023-04-15T15:26:51.448Z,774.00
2023-04-15T15:27:51.438Z,772.00
2023-04-15T15:28:51.414Z,712.00
2023-04-15T15:29:51.435Z,509.00
2023-04-15T15:30:51.399Z,587.00
2023-04-15T15:31:51.462Z,617.00
2023-04-15T15:32:51.451Z,567.00
2023-04-15T15:33:51.373Z,576.00
2023-04-15T15:34:51.353Z,630.00
2023-04-15T15:35:51.345Z,630.00
2023-04-15T15:36:51.355Z,721.00
2023-04-15T15:37:51.374Z,797.00
2023-04-15T15:38:51.305Z,722.00
2023-04-15T15:39:51.321Z,910.00
2023-04-15T15:40:51.295Z,780.00
2023-04-15T15:41:51.312Z,555.00
2023-04-15T15:42:51.252Z,693.00
2023-04-15T15:43:51.317Z,632.00
2023-04-15T15:44:51.271Z,563.00
2023-04-15T15:45:51.251Z,502.00
2023-04-15T15:46:51.317Z,555.00
2023-04-15T15:47:51.294Z,628.00
2023-04-15T15:48:51.196Z,493.00
2023-04-15T15:49:51.243Z,595.00
2023-04-15T15:50:51.207Z,618.00
2023-04-15T15:51:51.201Z,742.00
2023-04-15T15:52:51.177Z,698.00
2023-04-15T15:53:51.184Z,685.00
2023-04-15T15:54:51.131Z,669.00
2023-04-15T15:55:53.624Z,652.00
2023-04-15T15:56:51.172Z,673.00
2023-04-15T15:57:51.169Z,516.00
2023-04-15T15:58:51.102Z,549.00
2023-04-15T15:59:52.803Z,531.00
2023-04-15T16:00:51.122Z,457.00
2023-04-15T16:01:51.163Z,407.00
2023-04-15T16:03:06.103Z,336.00
2023-04-15T16:03:51.349Z,359.00
2023-04-15T16:04:51.077Z,350.00
2023-04-15T16:05:51.039Z,351.00
2023-04-15T16:06:51.002Z,337.00
2023-04-15T16:07:51.004Z,384.00
2023-04-15T16:08:51.050Z,384.00
2023-04-15T16:09:51.013Z,414.00
2023-04-15T16:10:50.989Z,392.00
2023-04-15T16:11:50.980Z,458.00
2023-04-15T16:12:50.950Z,465.00
2023-04-15T16:13:50.942Z,471.00
2023-04-15T16:14:50.972Z,495.00
2023-04-15T16:15:50.941Z,481.00
2023-04-15T16:16:51.034Z,383.00
2023-04-15T16:17:50.953Z,487.00
2023-04-15T16:18:50.880Z,607.00
2023-04-15T16:19:57.897Z,475.00
2023-04-15T16:20:50.885Z,482.00
2023-04-15T16:21:50.898Z,431.00
2023-04-15T16:22:50.845Z,336.00
2023-04-15T16:23:50.844Z,366.00
2023-04-15T16:24:50.840Z,312.00
2023-04-15T16:25:50.825Z,363.00
2023-04-15T16:26:50.867Z,359.00
2023-04-15T16:28:03.111Z,211.00
2023-04-15T16:28:50.785Z,309.00
2023-04-15T16:29:50.789Z,325.00
2023-04-15T16:30:50.751Z,470.00
2023-04-15T16:31:50.815Z,461.00
2023-04-15T16:32:50.768Z,332.00
2023-04-15T16:33:50.760Z,424.00
2023-04-15T16:34:50.726Z,386.00
2023-04-15T16:35:50.739Z,411.00
2023-04-15T16:36:50.776Z,351.00
2023-04-15T16:37:50.711Z,352.00
2023-04-15T16:38:50.707Z,314.00
2023-04-15T16:39:50.685Z,305.00
2023-04-15T16:40:50.663Z,254.00
2023-04-15T16:41:50.638Z,265.00
2023-04-15T16:42:50.651Z,259.00
2023-04-15T16:43:50.646Z,272.00
2023-04-15T16:44:50.638Z,257.00
2023-04-15T16:45:50.807Z,237.00
2023-04-15T16:46:50.605Z,204.00
2023-04-15T16:47:50.634Z,199.00
2023-04-15T16:48:50.577Z,204.00